createdAt,value
2023-02-22T00:01:35.707Z,37.90
2023-02-22T00:04:06.920Z,37.93
2023-02-22T00:06:34.228Z,34.57
2023-02-22T00:09:04.975Z,36.83
2023-02-22T00:11:31.820Z,39.70
2023-02-22T00:13:58.794Z,32.87
2023-02-22T00:16:26.637Z,37.70
2023-02-22T00:18:55.108Z,34.83
2023-02-22T00:21:22.570Z,36.87
2023-02-22T00:23:49.654Z,40.13
2023-02-22T00:26:21.253Z,38.97
2023-02-22T00:28:50.342Z,34.50
2023-02-22T00:31:18.102Z,36.43
2023-02-22T00:33:45.238Z,34.57
2023-02-22T00:36:13.139Z,35.97
2023-02-22T00:38:41.214Z,30.77
2023-02-22T00:41:08.000Z,31.53
2023-02-22T00:43:35.083Z,27.93
2023-02-22T00:46:01.974Z,30.30
2023-02-22T00:48:29.888Z,30.43
2023-02-22T00:50:56.698Z,28.63
2023-02-22T00:53:25.137Z,27.83
2023-02-22T00:55:52.694Z,28.93
2023-02-22T00:58:19.576Z,29.57
2023-02-22T01:00:46.940Z,32.33
2023-02-22T01:03:16.338Z,32.40
2023-02-22T01:05:43.529Z,27.47
2023-02-22T01:08:12.697Z,27.67
2023-02-22T01:10:40.131Z,29.57
2023-02-22T01:13:12.326Z,32.27
2023-02-22T01:15:42.042Z,35.53
2023-02-22T01:18:10.191Z,28.40
2023-02-22T01:20:37.237Z,39.77
2023-02-22T01:23:07.045Z,27.30
2023-02-22T01:25:34.874Z,39.07
2023-02-22T01:28:03.873Z,42.57
2023-02-22T01:30:35.618Z,30.13
2023-02-22T01:33:04.406Z,34.00
2023-02-22T01:35:34.457Z,29.17
2023-02-22T01:38:01.442Z,25.97
2023-02-22T01:40:34.155Z,22.37
2023-02-22T01:43:14.121Z,23.53
2023-02-22T01:45:47.155Z,23.67
2023-02-22T01:48:26.237Z,22.27
2023-02-22T01:51:00.448Z,21.10
2023-02-22T01:53:32.609Z,21.23
2023-02-22T01:56:00.358Z,21.40
2023-02-22T01:58:28.757Z,26.00
2023-02-22T02:00:58.146Z,23.10
2023-02-22T02:03:28.705Z,22.27
2023-02-22T02:05:58.483Z,30.97
2023-02-22T02:08:42.497Z,19.67
2023-02-22T02:11:10.055Z,20.43
2023-02-22T02:13:37.224Z,22.53
2023-02-22T02:16:04.227Z,17.13
2023-02-22T02:18:32.700Z,19.20
2023-02-22T02:21:33.162Z,21.23
2023-02-22T02:24:28.478Z,22.30
2023-02-22T02:27:11.974Z,21.77
2023-02-22T02:30:13.284Z,21.80
2023-02-22T02:32:49.208Z,18.50
2023-02-22T02:35:48.300Z,17.87
2023-02-22T02:38:42.251Z,17.77
2023-02-22T02:41:12.210Z,17.87
2023-02-22T02:44:00.925Z,16.80
2023-02-22T02:46:34.252Z,19.20
2023-02-22T02:49:06.203Z,15.90
2023-02-22T02:51:37.606Z,16.43
2023-02-22T02:54:05.113Z,18.60
2023-02-22T02:56:32.061Z,15.60
2023-02-22T02:59:00.210Z,15.27
2023-02-22T03:01:29.865Z,15.03
2023-02-22T03:04:23.596Z,16.67
2023-02-22T03:07:04.199Z,17.07
2023-02-22T03:09:44.514Z,15.93
2023-02-22T03:12:34.065Z,14.70
2023-02-22T03:15:22.732Z,14.90
2023-02-22T03:18:09.225Z,16.67
2023-02-22T03:20:47.790Z,15.20
2023-02-22T03:23:25.482Z,16.30
2023-02-22T03:25:59.354Z,18.97
2023-02-22T03:28:28.877Z,17.93
2023-02-22T03:30:59.374Z,17.77
2023-02-22T03:33:34.022Z,17.70
2023-02-22T03:36:24.963Z,15.90
2023-02-22T03:38:55.712Z,17.80
2023-02-22T03:41:25.211Z,17.90
2023-02-22T03:44:00.256Z,15.97
2023-02-22T03:46:29.431Z,15.10
2023-02-22T03:49:12.475Z,16.13
2023-02-22T03:51:41.011Z,15.33
2023-02-22T03:54:09.435Z,18.27
2023-02-22T03:56:47.248Z,15.47
2023-02-22T03:59:14.856Z,15.00
2023-02-22T04:01:41.880Z,14.90
2023-02-22T04:04:08.741Z,14.23
2023-02-22T04:06:37.848Z,14.20
2023-02-22T04:09:04.764Z,14.83
2023-02-22T04:11:32.265Z,14.07
2023-02-22T04:14:00.798Z,13.30
2023-02-22T04:16:27.738Z,14.77
2023-02-22T04:18:54.706Z,14.87
2023-02-22T04:21:21.535Z,15.93
2023-02-22T04:23:50.252Z,13.90
2023-02-22T04:26:17.851Z,15.73
2023-02-22T04:28:50.272Z,12.73
2023-02-22T04:31:19.580Z,13.83
2023-02-22T04:33:46.578Z,17.23
2023-02-22T04:36:21.716Z,13.50
2023-02-22T04:38:48.928Z,13.53
2023-02-22T04:41:18.535Z,14.57
2023-02-22T04:43:45.873Z,10.23
2023-02-22T04:46:21.764Z,11.37
2023-02-22T04:48:48.691Z,11.10
2023-02-22T04:51:16.928Z,10.30
2023-02-22T04:53:57.715Z,13.30
2023-02-22T04:56:25.133Z,13.30
2023-02-22T04:58:51.949Z,11.63
2023-02-22T05:01:19.427Z,12.93
2023-02-22T05:03:47.343Z,11.77
2023-02-22T05:06:14.095Z,11.57
2023-02-22T05:08:40.918Z,12.80
2023-02-22T05:11:07.666Z,12.10
2023-02-22T05:13:34.530Z,10.47
2023-02-22T05:16:01.503Z,11.20
2023-02-22T05:18:28.383Z,10.87
2023-02-22T05:20:55.304Z,11.67
2023-02-22T05:23:22.088Z,12.23
2023-02-22T05:25:48.767Z,12.17
2023-02-22T05:28:16.951Z,10.50
2023-02-22T05:30:43.715Z,10.23
2023-02-22T05:33:10.687Z,12.90
2023-02-22T05:35:37.452Z,9.67
2023-02-22T05:38:05.672Z,10.50
2023-02-22T05:40:32.921Z,7.93
2023-02-22T05:43:00.824Z,9.20
2023-02-22T05:45:28.210Z,7.73
2023-02-22T05:47:55.746Z,13.87
2023-02-22T05:50:22.804Z,10.90
2023-02-22T05:52:49.698Z,9.33
2023-02-22T05:55:19.258Z,7.70
2023-02-22T05:57:46.561Z,9.83
2023-02-22T06:00:24.115Z,7.37
2023-02-22T06:02:57.585Z,10.23
2023-02-22T06:05:24.612Z,8.40
2023-02-22T06:07:51.462Z,9.10
2023-02-22T06:10:18.713Z,9.27
2023-02-22T06:12:46.195Z,8.07
2023-02-22T06:15:13.892Z,11.57
2023-02-22T06:17:41.933Z,11.80
2023-02-22T06:20:13.793Z,6.53
2023-02-22T06:22:43.309Z,10.10
2023-02-22T06:25:15.283Z,11.13
2023-02-22T06:27:42.322Z,8.50
2023-02-22T06:30:13.094Z,9.00
2023-02-22T06:32:40.191Z,9.00
2023-02-22T06:35:07.410Z,9.20
2023-02-22T06:37:34.380Z,8.07
2023-02-22T06:40:05.533Z,7.33
2023-02-22T06:42:32.841Z,8.50
2023-02-22T06:44:59.927Z,8.73
2023-02-22T06:47:26.975Z,8.53
2023-02-22T06:49:54.668Z,8.50
2023-02-22T06:52:22.038Z,8.83
2023-02-22T06:54:49.067Z,8.77
2023-02-22T06:57:16.314Z,9.80
2023-02-22T06:59:43.487Z,8.33
2023-02-22T07:02:14.531Z,7.37
2023-02-22T07:04:43.534Z,13.97
2023-02-22T07:07:10.599Z,10.43
2023-02-22T07:09:37.534Z,9.07
2023-02-22T07:12:04.865Z,7.40
2023-02-22T07:14:31.546Z,9.03
2023-02-22T07:16:58.381Z,10.37
2023-02-22T07:19:25.525Z,8.33
2023-02-22T07:21:59.341Z,10.60
2023-02-22T07:24:28.581Z,9.27
2023-02-22T07:26:55.934Z,9.00
2023-02-22T07:29:22.694Z,12.60
2023-02-22T07:31:49.588Z,11.40
2023-02-22T07:34:16.503Z,10.30
2023-02-22T07:36:43.913Z,11.57
2023-02-22T07:39:11.184Z,10.07
2023-02-22T07:41:37.974Z,12.30
2023-02-22T07:44:15.457Z,9.00
2023-02-22T07:46:42.344Z,8.90
2023-02-22T07:49:09.104Z,12.10
2023-02-22T07:51:35.911Z,12.37
2023-02-22T07:54:02.599Z,12.37
2023-02-22T07:56:29.490Z,9.63
2023-02-22T07:58:56.174Z,11.17
2023-02-22T08:01:24.394Z,10.77
2023-02-22T08:03:52.779Z,11.90
2023-02-22T08:06:21.092Z,14.93
2023-02-22T08:08:47.874Z,11.03
2023-02-22T08:11:15.094Z,10.27
2023-02-22T08:13:41.951Z,8.33
2023-02-22T08:16:09.540Z,9.27
2023-02-22T08:18:38.495Z,16.10
2023-02-22T08:21:05.600Z,10.00
2023-02-22T08:23:33.303Z,9.70
2023-02-22T08:26:08.307Z,12.43
2023-02-22T08:28:35.693Z,10.40
2023-02-22T08:31:03.370Z,16.93
2023-02-22T08:33:30.203Z,18.67
2023-02-22T08:35:57.090Z,9.67
2023-02-22T08:38:29.645Z,13.60
2023-02-22T08:40:57.752Z,9.93
2023-02-22T08:43:24.977Z,9.00
2023-02-22T08:45:55.078Z,12.83
2023-02-22T08:48:24.203Z,8.13
2023-02-22T08:50:51.396Z,12.37
2023-02-22T08:53:18.587Z,12.90
2023-02-22T08:55:46.453Z,14.57
2023-02-22T08:58:13.790Z,14.47
2023-02-22T09:00:42.406Z,12.47
2023-02-22T09:03:13.421Z,13.27
2023-02-22T09:05:41.557Z,9.77
2023-02-22T09:08:08.766Z,14.20
2023-02-22T09:10:35.881Z,11.93
2023-02-22T09:13:04.181Z,11.87
2023-02-22T09:15:31.875Z,10.70
2023-02-22T09:17:58.939Z,14.33
2023-02-22T09:20:27.562Z,9.60
2023-02-22T09:22:55.331Z,13.17
2023-02-22T09:25:23.412Z,12.53
2023-02-22T09:27:52.349Z,11.30
2023-02-22T09:30:32.156Z,15.30
2023-02-22T09:33:11.171Z,12.60
2023-02-22T09:35:42.818Z,15.60
2023-02-22T09:38:10.641Z,13.60
2023-02-22T09:40:45.005Z,13.93
2023-02-22T09:43:25.133Z,11.33
2023-02-22T09:46:05.146Z,11.50
2023-02-22T09:48:35.348Z,15.57
2023-02-22T09:51:03.764Z,17.00
2023-02-22T09:53:37.340Z,14.07
2023-02-22T09:56:11.133Z,18.60
2023-02-22T09:58:45.136Z,17.13
2023-02-22T10:01:30.630Z,12.83
2023-02-22T10:04:38.121Z,13.87
2023-02-22T10:07:15.971Z,18.27
2023-02-22T10:09:43.468Z,12.83
2023-02-22T10:12:19.121Z,9.80
2023-02-22T10:14:57.342Z,12.07
2023-02-22T10:17:30.565Z,16.93
2023-02-22T10:20:06.422Z,16.77
2023-02-22T10:22:52.233Z,13.93
2023-02-22T10:25:23.015Z,12.90
2023-02-22T10:28:03.873Z,13.07
2023-02-22T10:30:36.822Z,17.40
2023-02-22T10:33:10.859Z,11.80
2023-02-22T10:35:41.102Z,14.57
2023-02-22T10:38:19.069Z,14.47
2023-02-22T10:40:51.269Z,15.93
2023-02-22T10:43:18.338Z,15.50
2023-02-22T10:45:45.398Z,16.33
2023-02-22T10:48:15.583Z,21.03
2023-02-22T10:50:43.652Z,17.40
2023-02-22T10:53:11.860Z,14.83
2023-02-22T10:56:16.059Z,12.30
2023-02-22T10:59:05.963Z,24.90
2023-02-22T11:01:33.041Z,15.13
2023-02-22T11:04:12.177Z,14.63
2023-02-22T11:06:44.487Z,17.00
2023-02-22T11:09:13.524Z,19.33
2023-02-22T11:11:43.126Z,24.60
2023-02-22T11:14:11.975Z,21.80
2023-02-22T11:16:42.970Z,18.13
2023-02-22T11:19:16.094Z,22.30
2023-02-22T11:21:43.629Z,17.70
2023-02-22T11:24:14.086Z,15.93
2023-02-22T11:26:43.010Z,25.80
2023-02-22T11:29:13.247Z,15.37
2023-02-22T11:31:45.035Z,18.10
2023-02-22T11:34:34.194Z,17.23
2023-02-22T11:37:18.335Z,17.80
2023-02-22T11:39:45.662Z,17.60
2023-02-22T11:42:27.251Z,15.83
2023-02-22T11:45:21.940Z,16.87
2023-02-22T11:47:52.695Z,17.63
2023-02-22T11:50:33.306Z,18.63
2023-02-22T11:53:14.979Z,20.87
2023-02-22T11:56:28.423Z,18.80
2023-02-22T11:59:11.591Z,20.17
2023-02-22T12:01:51.605Z,18.10
2023-02-22T12:04:43.617Z,28.03
2023-02-22T12:07:22.463Z,22.40
2023-02-22T12:10:05.589Z,21.47
2023-02-22T12:12:35.898Z,18.50
2023-02-22T12:15:27.466Z,18.67
2023-02-22T12:18:05.784Z,19.70
2023-02-22T12:20:47.901Z,20.87
2023-02-22T12:23:19.827Z,24.47
2023-02-22T12:25:58.949Z,22.90
2023-02-22T12:29:01.521Z,25.57
2023-02-22T12:31:34.058Z,26.13
2023-02-22T12:34:13.968Z,18.80
2023-02-22T12:36:47.560Z,19.93
2023-02-22T12:39:52.224Z,22.70
2023-02-22T12:42:53.766Z,23.47
2023-02-22T12:45:29.339Z,21.83
2023-02-22T12:48:14.579Z,23.97
2023-02-22T12:50:43.039Z,26.00
2023-02-22T12:53:10.029Z,24.00
2023-02-22T12:55:45.935Z,25.03
2023-02-22T12:58:27.045Z,20.23
2023-02-22T13:01:22.441Z,21.83
2023-02-22T13:03:49.421Z,20.47
2023-02-22T13:06:31.750Z,26.47
2023-02-22T13:09:27.277Z,26.27
2023-02-22T13:12:13.063Z,24.57
2023-02-22T13:14:52.202Z,27.77
2023-02-22T13:17:38.184Z,24.53
2023-02-22T13:20:14.461Z,31.53
2023-02-22T13:22:49.099Z,23.67
2023-02-22T13:25:25.693Z,26.30
2023-02-22T13:28:00.677Z,33.70
2023-02-22T13:30:46.251Z,30.53
2023-02-22T13:33:25.696Z,29.17
2023-02-22T13:36:18.971Z,32.63
2023-02-22T13:38:57.656Z,28.20
2023-02-22T13:41:45.314Z,32.77
2023-02-22T13:44:46.210Z,29.67
2023-02-22T13:47:30.251Z,31.73
2023-02-22T13:50:09.148Z,26.57
2023-02-22T13:52:39.194Z,28.20
2023-02-22T13:55:12.093Z,31.87
2023-02-22T13:57:40.910Z,32.83
2023-02-22T14:00:21.023Z,44.37
2023-02-22T14:03:02.426Z,36.77
2023-02-22T14:05:51.058Z,28.87
2023-02-22T14:08:18.846Z,31.33
2023-02-22T14:10:57.816Z,29.63
2023-02-22T14:13:33.310Z,31.07
2023-02-22T14:16:00.360Z,27.67
2023-02-22T14:18:31.925Z,28.03
2023-02-22T14:21:16.367Z,33.17
2023-02-22T14:23:50.410Z,30.43
2023-02-22T14:26:30.917Z,30.57
2023-02-22T14:29:01.073Z,34.30
2023-02-22T14:31:37.014Z,30.87
2023-02-22T14:34:16.380Z,36.33
2023-02-22T14:37:01.101Z,35.27
2023-02-22T14:39:32.193Z,36.73
2023-02-22T14:42:03.781Z,39.20
2023-02-22T14:44:36.016Z,38.80
2023-02-22T14:47:05.394Z,36.67
2023-02-22T14:49:36.773Z,38.73
2023-02-22T14:52:08.289Z,41.27
2023-02-22T14:54:50.149Z,33.80
2023-02-22T14:57:39.054Z,35.50
2023-02-22T15:00:20.086Z,38.53
2023-02-22T15:02:57.444Z,37.10
2023-02-22T15:05:26.501Z,37.30
2023-02-22T15:07:59.844Z,39.73
2023-02-22T15:10:43.079Z,37.13
2023-02-22T15:13:19.458Z,39.63
2023-02-22T15:15:49.791Z,33.53
2023-02-22T15:18:47.338Z,38.70
2023-02-22T15:21:17.767Z,35.93
2023-02-22T15:23:54.090Z,37.20
2023-02-22T15:26:25.377Z,36.23
2023-02-22T15:28:57.072Z,38.23
2023-02-22T15:31:37.584Z,35.90
2023-02-22T15:34:19.300Z,34.80
2023-02-22T15:36:47.865Z,35.33
2023-02-22T15:39:29.523Z,33.63
2023-02-22T15:42:19.281Z,38.80
2023-02-22T15:44:48.229Z,38.70
2023-02-22T15:47:19.905Z,41.17
2023-02-22T15:50:25.986Z,36.87
2023-02-22T15:52:55.155Z,38.93
2023-02-22T15:55:25.867Z,40.60
2023-02-22T15:57:52.947Z,43.73
2023-02-22T16:00:38.522Z,40.93
2023-02-22T16:03:10.040Z,39.30
2023-02-22T16:05:44.628Z,46.37
2023-02-22T16:08:31.517Z,42.23
2023-02-22T16:11:04.780Z,43.20
2023-02-22T16:13:35.620Z,43.70
2023-02-22T16:16:05.417Z,48.13
2023-02-22T16:18:36.337Z,48.27
2023-02-22T16:21:12.290Z,43.70
2023-02-22T16:23:48.524Z,43.23
2023-02-22T16:26:35.217Z,44.37
2023-02-22T16:29:06.110Z,47.90
2023-02-22T16:31:37.231Z,50.43
2023-02-22T16:34:07.003Z,53.00
2023-02-22T16:36:40.500Z,55.13
2023-02-22T16:39:08.885Z,55.67
2023-02-22T16:41:35.750Z,49.17
2023-02-22T16:44:08.286Z,46.60
2023-02-22T16:46:36.300Z,47.47
2023-02-22T16:49:10.753Z,48.83
2023-02-22T16:52:02.852Z,51.37
2023-02-22T16:57:29.253Z,46.00
2023-02-22T16:59:59.505Z,55.03
2023-02-22T17:02:27.898Z,40.60
2023-02-22T17:04:54.970Z,39.67
2023-02-22T17:07:30.022Z,43.40
2023-02-22T17:10:00.757Z,43.90
2023-02-22T17:12:29.369Z,39.37
2023-02-22T17:14:56.228Z,35.93
2023-02-22T17:17:23.140Z,40.03
2023-02-22T17:19:50.139Z,42.57
2023-02-22T17:22:22.510Z,41.63
2023-02-22T17:24:49.923Z,42.53
2023-02-22T17:27:16.692Z,38.57
2023-02-22T17:29:45.140Z,44.17
2023-02-22T17:32:12.822Z,38.57
2023-02-22T17:34:42.871Z,40.53
2023-02-22T17:37:35.811Z,40.93
2023-02-22T17:40:06.949Z,39.23
2023-02-22T17:42:34.415Z,37.13
2023-02-22T17:45:01.640Z,37.77
2023-02-22T17:47:29.290Z,43.57
2023-02-22T17:49:58.008Z,35.13
2023-02-22T17:52:24.800Z,42.70
2023-02-22T17:54:51.736Z,40.93
2023-02-22T17:57:18.883Z,39.27
2023-02-22T17:59:45.607Z,44.43
2023-02-22T18:02:12.567Z,45.63
2023-02-22T18:04:40.793Z,39.77
2023-02-22T18:07:07.704Z,42.17
2023-02-22T18:09:35.912Z,39.77
2023-02-22T18:12:02.950Z,47.70
2023-02-22T18:14:29.723Z,46.90
2023-02-22T18:16:56.535Z,47.73
2023-02-22T18:19:23.470Z,41.00
2023-02-22T18:21:50.300Z,48.70
2023-02-22T18:24:18.517Z,42.57
2023-02-22T18:26:45.299Z,44.63
2023-02-22T18:29:12.430Z,46.70
2023-02-22T18:31:39.269Z,42.77
2023-02-22T18:34:06.112Z,44.97
2023-02-22T18:36:32.914Z,41.53
2023-02-22T18:38:59.708Z,45.40
2023-02-22T18:41:26.657Z,46.23
2023-02-22T18:43:55.669Z,42.90
2023-02-22T18:46:23.514Z,42.83
2023-02-22T18:48:53.913Z,44.27
2023-02-22T18:51:21.049Z,46.13
2023-02-22T18:53:49.922Z,51.33
2023-02-22T18:56:22.254Z,44.93
2023-02-22T18:58:53.722Z,44.77
2023-02-22T19:01:22.291Z,45.73
2023-02-22T19:03:49.183Z,46.73
2023-02-22T19:06:17.106Z,50.97
2023-02-22T19:08:44.983Z,49.83
2023-02-22T19:11:17.977Z,47.00
2023-02-22T19:13:50.464Z,54.87
2023-02-22T19:16:21.405Z,50.10
2023-02-22T19:18:49.293Z,50.07
2023-02-22T19:21:16.680Z,53.40
2023-02-22T19:23:48.048Z,48.20
2023-02-22T19:26:26.135Z,48.67
2023-02-22T19:28:54.847Z,48.47
2023-02-22T19:31:22.008Z,53.23
2023-02-22T19:33:52.583Z,56.60
2023-02-22T19:36:20.464Z,54.17
2023-02-22T19:38:47.210Z,49.60
2023-02-22T19:41:22.876Z,46.70
2023-02-22T19:43:54.515Z,48.37
2023-02-22T19:46:21.817Z,48.47
2023-02-22T19:48:49.904Z,49.33
2023-02-22T19:51:18.769Z,48.20
2023-02-22T19:53:47.572Z,51.43
2023-02-22T19:56:16.781Z,53.70
2023-02-22T19:58:45.357Z,54.20
2023-02-22T20:01:23.296Z,54.30
2023-02-22T20:03:54.689Z,52.23
2023-02-22T20:06:28.642Z,51.97
2023-02-22T20:08:56.427Z,55.97
2023-02-22T20:11:24.459Z,54.10
2023-02-22T20:13:52.521Z,54.00
2023-02-22T20:16:19.276Z,55.30
2023-02-22T20:18:46.992Z,56.17
2023-02-22T20:21:19.858Z,54.30
2023-02-22T20:23:46.921Z,60.80
2023-02-22T20:26:18.444Z,54.70
2023-02-22T20:28:45.900Z,61.13
2023-02-22T20:31:14.095Z,55.47
2023-02-22T20:33:41.945Z,61.07
2023-02-22T20:36:10.637Z,54.60
2023-02-22T20:38:38.401Z,53.33
2023-02-22T20:41:07.097Z,56.63
2023-02-22T20:43:34.495Z,57.73
2023-02-22T20:46:05.359Z,62.00
2023-02-22T20:48:32.676Z,54.70
2023-02-22T20:51:07.124Z,63.33
2023-02-22T20:53:35.349Z,60.40
2023-02-22T20:56:02.384Z,65.90
2023-02-22T20:58:29.453Z,64.50
2023-02-22T21:00:56.191Z,62.60
2023-02-22T21:03:23.038Z,68.57
2023-02-22T21:05:49.693Z,60.07
2023-02-22T21:08:16.639Z,65.90
2023-02-22T21:10:48.098Z,73.07
2023-02-22T21:13:17.588Z,68.60
2023-02-22T21:15:47.109Z,61.27
2023-02-22T21:18:14.515Z,64.27
2023-02-22T21:20:43.283Z,71.43
2023-02-22T21:23:11.214Z,63.63
2023-02-22T21:25:38.324Z,62.10
2023-02-22T21:28:05.268Z,64.70
2023-02-22T21:30:33.006Z,66.00
2023-02-22T21:33:06.286Z,63.97
2023-02-22T21:35:36.969Z,61.17
2023-02-22T21:38:03.755Z,65.63
2023-02-22T21:40:30.633Z,63.73
2023-02-22T21:42:57.444Z,66.00
2023-02-22T21:45:24.104Z,60.33
2023-02-22T21:47:55.949Z,64.83
2023-02-22T21:50:25.451Z,59.53
2023-02-22T21:52:52.081Z,66.87
2023-02-22T21:55:19.354Z,59.43
2023-02-22T21:57:46.036Z,66.37
2023-02-22T22:00:17.398Z,62.40
2023-02-22T22:02:51.394Z,60.37
2023-02-22T22:05:30.069Z,55.33
2023-02-22T22:07:57.650Z,64.93
2023-02-22T22:10:27.847Z,66.30
2023-02-22T22:12:55.068Z,57.53
2023-02-22T22:15:23.604Z,59.73
2023-02-22T22:17:50.615Z,64.67
2023-02-22T22:20:17.428Z,62.03
2023-02-22T22:22:46.113Z,63.10
2023-02-22T22:25:14.265Z,62.60
2023-02-22T22:27:41.143Z,60.67
2023-02-22T22:30:08.426Z,64.47
2023-02-22T22:32:36.401Z,57.67
2023-02-22T22:35:04.694Z,59.63
2023-02-22T22:37:31.598Z,60.13
2023-02-22T22:39:58.586Z,58.93
2023-02-22T22:42:25.765Z,61.07
2023-02-22T22:44:53.228Z,54.67
2023-02-22T22:47:20.715Z,64.40
2023-02-22T22:49:47.895Z,62.43
2023-02-22T22:52:16.585Z,54.57
2023-02-22T22:54:44.349Z,57.10
2023-02-22T22:57:14.706Z,58.70
2023-02-22T22:59:41.615Z,55.43
2023-02-22T23:02:11.356Z,61.33
2023-02-22T23:04:38.130Z,56.07
2023-02-22T23:07:06.621Z,59.90
2023-02-22T23:09:38.586Z,57.60
2023-02-22T23:12:09.330Z,56.67
2023-02-22T23:14:39.477Z,55.97
2023-02-22T23:17:15.120Z,56.83
2023-02-22T23:19:44.997Z,56.77
2023-02-22T23:22:14.345Z,53.30
2023-02-22T23:24:44.546Z,56.83
2023-02-22T23:27:12.390Z,54.23
2023-02-22T23:29:40.774Z,58.63
2023-02-22T23:32:08.189Z,61.17
2023-02-22T23:34:36.060Z,58.20
2023-02-22T23:37:03.216Z,56.17
2023-02-22T23:39:29.951Z,61.57
2023-02-22T23:42:00.877Z,63.53
2023-02-22T23:44:28.130Z,60.97
2023-02-22T23:46:55.623Z,63.07
2023-02-22T23:49:27.616Z,65.50
2023-02-22T23:51:54.672Z,61.63
2023-02-22T23:54:21.760Z,56.40
2023-02-22T23:56:58.456Z,59.53
2023-02-22T23:59:26.557Z,60.07
